sensor_id;sensor_type;location;lat;lon;timestamp;temperature;humidity
45207;DHT22;30950;53.086;21.576;2023-05-29T00:00:59;10.60;99.90
45207;DHT22;30950;53.086;21.576;2023-05-29T00:03:27;10.60;99.90
45207;DHT22;30950;53.086;21.576;2023-05-29T00:05:54;10.70;99.90
45207;DHT22;30950;53.086;21.576;2023-05-29T00:08:22;10.50;99.90
45207;DHT22;30950;53.086;21.576;2023-05-29T00:10:49;10.50;99.90
45207;DHT22;30950;53.086;21.576;2023-05-29T00:13:16;10.50;99.90
45207;DHT22;30950;53.086;21.576;2023-05-29T00:15:44;10.50;99.90
45207;DHT22;30950;53.086;21.576;2023-05-29T00:18:11;10.30;99.90
45207;DHT22;30950;53.086;21.576;2023-05-29T00:20:38;10.30;99.90
45207;DHT22;30950;53.086;21.576;2023-05-29T00:23:06;10.30;99.90
45207;DHT22;30950;53.086;21.576;2023-05-29T00:25:33;10.30;99.90
45207;DHT22;30950;53.086;21.576;2023-05-29T00:28:01;10.10;99.90
45207;DHT22;30950;53.086;21.576;2023-05-29T00:30:28;10.30;99.90
45207;DHT22;30950;53.086;21.576;2023-05-29T00:32:55;10.90;99.90
45207;DHT22;30950;53.086;21.576;2023-05-29T00:35:24;10.10;99.90
45207;DHT22;30950;53.086;21.576;2023-05-29T00:37:51;10.00;99.90
45207;DHT22;30950;53.086;21.576;2023-05-29T00:40:18;10.00;99.90
45207;DHT22;30950;53.086;21.576;2023-05-29T00:42:46;9.90;99.90
45207;DHT22;30950;53.086;21.576;2023-05-29T00:45:13;9.90;99.90
45207;DHT22;30950;53.086;21.576;2023-05-29T00:47:41;9.80;99.90
45207;DHT22;30950;53.086;21.576;2023-05-29T00:50:10;10.10;99.90
45207;DHT22;30950;53.086;21.576;2023-05-29T00:52:37;9.80;99.90
45207;DHT22;30950;53.086;21.576;2023-05-29T00:55:07;9.70;99.90
45207;DHT22;30950;53.086;21.576;2023-05-29T00:57:35;9.60;99.90
45207;DHT22;30950;53.086;21.576;2023-05-29T01:00:06;9.60;99.90
45207;DHT22;30950;53.086;21.576;2023-05-29T01:02:43;9.60;99.90
45207;DHT22;30950;53.086;21.576;2023-05-29T01:05:13;10.20;99.90
45207;DHT22;30950;53.086;21.576;2023-05-29T01:07:42;9.50;99.90
45207;DHT22;30950;53.086;21.576;2023-05-29T01:10:10;9.60;99.90
45207;DHT22;30950;53.086;21.576;2023-05-29T01:12:43;9.50;99.90
45207;DHT22;30950;53.086;21.576;2023-05-29T01:26:41;9.40;99.90
45207;DHT22;30950;53.086;21.576;2023-05-29T01:29:15;9.40;99.90
45207;DHT22;30950;53.086;21.576;2023-05-29T01:31:46;9.40;99.90
45207;DHT22;30950;53.086;21.576;2023-05-29T01:34:13;9.30;99.90
45207;DHT22;30950;53.086;21.576;2023-05-29T01:36:43;9.30;99.90
45207;DHT22;30950;53.086;21.576;2023-05-29T01:39:10;9.50;99.90
45207;DHT22;30950;53.086;21.576;2023-05-29T01:41:38;9.30;99.90
45207;DHT22;30950;53.086;21.576;2023-05-29T01:44:08;9.30;99.90
45207;DHT22;30950;53.086;21.576;2023-05-29T01:46:37;9.30;99.90
45207;DHT22;30950;53.086;21.576;2023-05-29T01:49:07;9.30;99.90
45207;DHT22;30950;53.086;21.576;2023-05-29T01:51:35;9.30;99.90
45207;DHT22;30950;53.086;21.576;2023-05-29T01:54:03;9.40;99.90
45207;DHT22;30950;53.086;21.576;2023-05-29T01:56:31;9.30;99.90
45207;DHT22;30950;53.086;21.576;2023-05-29T01:58:58;9.30;99.90
45207;DHT22;30950;53.086;21.576;2023-05-29T02:01:27;9.30;99.90
45207;DHT22;30950;53.086;21.576;2023-05-29T02:03:54;9.60;99.90
45207;DHT22;30950;53.086;21.576;2023-05-29T02:06:22;9.30;99.90
45207;DHT22;30950;53.086;21.576;2023-05-29T02:08:50;9.30;99.90
45207;DHT22;30950;53.086;21.576;2023-05-29T02:11:18;9.30;99.90
45207;DHT22;30950;53.086;21.576;2023-05-29T02:13:45;9.20;99.90
45207;DHT22;30950;53.086;21.576;2023-05-29T02:16:13;9.30;99.90
45207;DHT22;30950;53.086;21.576;2023-05-29T02:18:40;9.20;99.90
45207;DHT22;30950;53.086;21.576;2023-05-29T02:21:08;9.20;99.90
45207;DHT22;30950;53.086;21.576;2023-05-29T02:23:36;9.20;99.90
45207;DHT22;30950;53.086;21.576;2023-05-29T02:26:04;9.10;99.90
45207;DHT22;30950;53.086;21.576;2023-05-29T02:28:31;9.10;99.90
45207;DHT22;30950;53.086;21.576;2023-05-29T02:30:59;9.10;99.90
45207;DHT22;30950;53.086;21.576;2023-05-29T02:33:26;9.00;99.90
45207;DHT22;30950;53.086;21.576;2023-05-29T02:35:54;9.10;99.90
45207;DHT22;30950;53.086;21.576;2023-05-29T02:38:21;9.00;99.90
45207;DHT22;30950;53.086;21.576;2023-05-29T02:40:48;8.90;99.90
45207;DHT22;30950;53.086;21.576;2023-05-29T02:43:15;8.90;99.90
45207;DHT22;30950;53.086;21.576;2023-05-29T02:45:43;9.50;99.90
45207;DHT22;30950;53.086;21.576;2023-05-29T02:48:10;8.90;99.90
45207;DHT22;30950;53.086;21.576;2023-05-29T02:50:37;8.90;99.90
45207;DHT22;30950;53.086;21.576;2023-05-29T02:53:04;8.90;99.90
45207;DHT22;30950;53.086;21.576;2023-05-29T02:55:32;8.80;99.90
45207;DHT22;30950;53.086;21.576;2023-05-29T02:58:02;8.90;99.90
45207;DHT22;30950;53.086;21.576;2023-05-29T03:00:30;8.90;99.90
45207;DHT22;30950;53.086;21.576;2023-05-29T03:02:57;8.80;99.90
45207;DHT22;30950;53.086;21.576;2023-05-29T03:05:25;8.80;99.90
45207;DHT22;30950;53.086;21.576;2023-05-29T03:07:53;8.90;99.90
45207;DHT22;30950;53.086;21.576;2023-05-29T03:10:20;8.90;99.90
45207;DHT22;30950;53.086;21.576;2023-05-29T03:12:47;8.90;99.90
45207;DHT22;30950;53.086;21.576;2023-05-29T03:15:16;8.90;99.90
45207;DHT22;30950;53.086;21.576;2023-05-29T03:17:43;9.20;99.90
45207;DHT22;30950;53.086;21.576;2023-05-29T03:20:15;9.00;99.90
45207;DHT22;30950;53.086;21.576;2023-05-29T03:22:43;9.00;99.90
45207;DHT22;30950;53.086;21.576;2023-05-29T03:25:11;9.10;99.90
45207;DHT22;30950;53.086;21.576;2023-05-29T03:27:38;9.10;99.90
45207;DHT22;30950;53.086;21.576;2023-05-29T03:30:12;9.10;99.90
45207;DHT22;30950;53.086;21.576;2023-05-29T03:32:41;9.20;99.90
45207;DHT22;30950;53.086;21.576;2023-05-29T03:35:09;9.20;99.90
45207;DHT22;30950;53.086;21.576;2023-05-29T03:37:39;9.20;99.90
45207;DHT22;30950;53.086;21.576;2023-05-29T03:40:07;9.20;99.90
45207;DHT22;30950;53.086;21.576;2023-05-29T03:42:35;9.30;99.90
45207;DHT22;30950;53.086;21.576;2023-05-29T03:45:02;9.30;99.90
45207;DHT22;30950;53.086;21.576;2023-05-29T03:47:31;9.40;99.90
45207;DHT22;30950;53.086;21.576;2023-05-29T03:50:00;9.50;99.90
45207;DHT22;30950;53.086;21.576;2023-05-29T03:52:31;9.50;99.90
45207;DHT22;30950;53.086;21.576;2023-05-29T03:55:00;9.60;99.90
45207;DHT22;30950;53.086;21.576;2023-05-29T03:57:27;9.60;99.90
45207;DHT22;30950;53.086;21.576;2023-05-29T03:59:54;9.60;99.90
45207;DHT22;30950;53.086;21.576;2023-05-29T04:02:22;9.70;99.90
45207;DHT22;30950;53.086;21.576;2023-05-29T04:04:49;9.80;99.90
45207;DHT22;30950;53.086;21.576;2023-05-29T04:07:17;9.80;99.90
45207;DHT22;30950;53.086;21.576;2023-05-29T04:09:45;9.80;99.90
45207;DHT22;30950;53.086;21.576;2023-05-29T04:12:12;9.80;99.90
45207;DHT22;30950;53.086;21.576;2023-05-29T04:14:40;9.90;99.90
45207;DHT22;30950;53.086;21.576;2023-05-29T04:17:08;10.00;99.90
45207;DHT22;30950;53.086;21.576;2023-05-29T04:19:35;10.00;99.90
45207;DHT22;30950;53.086;21.576;2023-05-29T04:22:03;10.10;99.90
45207;DHT22;30950;53.086;21.576;2023-05-29T04:24:30;10.20;99.90
45207;DHT22;30950;53.086;21.576;2023-05-29T04:26:59;10.30;99.90
45207;DHT22;30950;53.086;21.576;2023-05-29T04:29:30;10.40;99.90
45207;DHT22;30950;53.086;21.576;2023-05-29T04:31:57;10.50;99.90
45207;DHT22;30950;53.086;21.576;2023-05-29T04:34:25;10.60;99.90
45207;DHT22;30950;53.086;21.576;2023-05-29T04:36:52;10.70;99.90
45207;DHT22;30950;53.086;21.576;2023-05-29T04:39:20;10.80;99.90
45207;DHT22;30950;53.086;21.576;2023-05-29T04:41:49;11.00;99.90
45207;DHT22;30950;53.086;21.576;2023-05-29T04:44:20;11.30;99.90
45207;DHT22;30950;53.086;21.576;2023-05-29T04:46:50;11.20;99.90
45207;DHT22;30950;53.086;21.576;2023-05-29T04:49:20;11.40;99.90
45207;DHT22;30950;53.086;21.576;2023-05-29T04:51:49;11.50;99.90
45207;DHT22;30950;53.086;21.576;2023-05-29T04:54:21;11.70;99.90
45207;DHT22;30950;53.086;21.576;2023-05-29T04:56:52;11.70;99.90
45207;DHT22;30950;53.086;21.576;2023-05-29T04:59:25;11.90;99.90
45207;DHT22;30950;53.086;21.576;2023-05-29T05:01:53;12.10;99.90
45207;DHT22;30950;53.086;21.576;2023-05-29T05:04:21;12.20;99.90
45207;DHT22;30950;53.086;21.576;2023-05-29T05:06:48;12.50;99.90
45207;DHT22;30950;53.086;21.576;2023-05-29T05:09:15;12.60;99.90
45207;DHT22;30950;53.086;21.576;2023-05-29T05:11:44;12.80;99.90
45207;DHT22;30950;53.086;21.576;2023-05-29T05:14:11;12.90;99.90
45207;DHT22;30950;53.086;21.576;2023-05-29T05:16:39;13.00;99.90
45207;DHT22;30950;53.086;21.576;2023-05-29T05:19:10;13.20;99.90
45207;DHT22;30950;53.086;21.576;2023-05-29T05:21:39;13.40;99.90
45207;DHT22;30950;53.086;21.576;2023-05-29T05:24:07;13.50;99.90
45207;DHT22;30950;53.086;21.576;2023-05-29T05:26:38;13.60;99.90
45207;DHT22;30950;53.086;21.576;2023-05-29T05:29:07;13.70;99.90
45207;DHT22;30950;53.086;21.576;2023-05-29T05:31:38;13.80;99.90
45207;DHT22;30950;53.086;21.576;2023-05-29T05:34:06;13.90;99.90
45207;DHT22;30950;53.086;21.576;2023-05-29T05:36:33;14.10;99.90
45207;DHT22;30950;53.086;21.576;2023-05-29T05:39:08;14.20;99.90
45207;DHT22;30950;53.086;21.576;2023-05-29T05:41:36;14.30;99.90
45207;DHT22;30950;53.086;21.576;2023-05-29T05:44:03;14.40;99.90
45207;DHT22;30950;53.086;21.576;2023-05-29T05:46:51;14.50;99.90
45207;DHT22;30950;53.086;21.576;2023-05-29T05:49:19;14.70;99.70
45207;DHT22;30950;53.086;21.576;2023-05-29T05:51:47;14.80;98.40
45207;DHT22;30950;53.086;21.576;2023-05-29T05:54:17;14.90;97.20
45207;DHT22;30950;53.086;21.576;2023-05-29T05:56:44;15.10;96.20
45207;DHT22;30950;53.086;21.576;2023-05-29T05:59:15;15.20;95.60
45207;DHT22;30950;53.086;21.576;2023-05-29T06:01:42;15.30;95.10
45207;DHT22;30950;53.086;21.576;2023-05-29T06:04:09;15.40;95.00
45207;DHT22;30950;53.086;21.576;2023-05-29T06:06:37;15.60;94.10
45207;DHT22;30950;53.086;21.576;2023-05-29T06:09:04;15.70;93.50
45207;DHT22;30950;53.086;21.576;2023-05-29T06:11:32;15.80;92.20
45207;DHT22;30950;53.086;21.576;2023-05-29T06:13:59;15.90;91.40
45207;DHT22;30950;53.086;21.576;2023-05-29T06:16:28;16.00;90.30
45207;DHT22;30950;53.086;21.576;2023-05-29T06:18:57;16.10;89.60
45207;DHT22;30950;53.086;21.576;2023-05-29T06:21:25;16.20;88.90
45207;DHT22;30950;53.086;21.576;2023-05-29T06:23:55;16.30;88.40
45207;DHT22;30950;53.086;21.576;2023-05-29T06:26:23;16.40;88.10
45207;DHT22;30950;53.086;21.576;2023-05-29T06:28:53;16.50;87.00
45207;DHT22;30950;53.086;21.576;2023-05-29T06:31:21;16.60;86.30
45207;DHT22;30950;53.086;21.576;2023-05-29T06:33:49;16.70;85.30
45207;DHT22;30950;53.086;21.576;2023-05-29T06:36:17;16.80;83.90
45207;DHT22;30950;53.086;21.576;2023-05-29T06:38:48;17.00;82.60
45207;DHT22;30950;53.086;21.576;2023-05-29T06:41:16;17.10;80.30
45207;DHT22;30950;53.086;21.576;2023-05-29T06:43:43;17.10;80.20
45207;DHT22;30950;53.086;21.576;2023-05-29T06:46:12;17.20;80.00
45207;DHT22;30950;53.086;21.576;2023-05-29T06:48:40;17.30;79.50
45207;DHT22;30950;53.086;21.576;2023-05-29T06:51:09;17.30;79.90
45207;DHT22;30950;53.086;21.576;2023-05-29T06:53:54;17.40;79.90
45207;DHT22;30950;53.086;21.576;2023-05-29T06:56:22;17.50;80.00
45207;DHT22;30950;53.086;21.576;2023-05-29T06:58:50;17.50;79.40
45207;DHT22;30950;53.086;21.576;2023-05-29T07:01:17;17.60;77.00
45207;DHT22;30950;53.086;21.576;2023-05-29T07:03:56;17.70;76.20
45207;DHT22;30950;53.086;21.576;2023-05-29T07:06:23;17.80;74.80
45207;DHT22;30950;53.086;21.576;2023-05-29T07:08:50;17.90;74.40
45207;DHT22;30950;53.086;21.576;2023-05-29T07:11:17;18.00;74.50
45207;DHT22;30950;53.086;21.576;2023-05-29T07:13:45;18.00;73.10
45207;DHT22;30950;53.086;21.576;2023-05-29T07:16:13;18.10;73.00
45207;DHT22;30950;53.086;21.576;2023-05-29T07:19:02;18.20;70.70
45207;DHT22;30950;53.086;21.576;2023-05-29T07:21:33;18.40;69.20
45207;DHT22;30950;53.086;21.576;2023-05-29T07:24:02;18.40;69.10
45207;DHT22;30950;53.086;21.576;2023-05-29T07:26:29;18.50;69.10
45207;DHT22;30950;53.086;21.576;2023-05-29T07:28:58;18.60;68.80
45207;DHT22;30950;53.086;21.576;2023-05-29T07:31:25;18.60;68.30
45207;DHT22;30950;53.086;21.576;2023-05-29T07:33:54;18.70;65.90
45207;DHT22;30950;53.086;21.576;2023-05-29T07:36:22;18.80;64.40
45207;DHT22;30950;53.086;21.576;2023-05-29T07:38:51;18.80;64.70
45207;DHT22;30950;53.086;21.576;2023-05-29T07:41:21;18.90;65.00
45207;DHT22;30950;53.086;21.576;2023-05-29T07:43:52;19.00;64.20
45207;DHT22;30950;53.086;21.576;2023-05-29T07:46:20;19.00;63.50
45207;DHT22;30950;53.086;21.576;2023-05-29T07:48:51;19.10;63.40
45207;DHT22;30950;53.086;21.576;2023-05-29T07:51:19;19.20;63.60
45207;DHT22;30950;53.086;21.576;2023-05-29T07:53:49;19.20;63.60
45207;DHT22;30950;53.086;21.576;2023-05-29T07:56:17;19.30;61.80
45207;DHT22;30950;53.086;21.576;2023-05-29T07:58:45;19.30;61.80
45207;DHT22;30950;53.086;21.576;2023-05-29T08:01:13;19.30;61.80
45207;DHT22;30950;53.086;21.576;2023-05-29T08:03:41;19.40;61.80
45207;DHT22;30950;53.086;21.576;2023-05-29T08:06:13;19.40;61.80
45207;DHT22;30950;53.086;21.576;2023-05-29T08:08:41;19.50;61.30
45207;DHT22;30950;53.086;21.576;2023-05-29T08:11:08;19.60;61.60
45207;DHT22;30950;53.086;21.576;2023-05-29T08:13:35;19.60;61.30
45207;DHT22;30950;53.086;21.576;2023-05-29T08:16:03;19.60;60.90
45207;DHT22;30950;53.086;21.576;2023-05-29T08:18:31;19.70;60.70
45207;DHT22;30950;53.086;21.576;2023-05-29T08:20:59;19.80;60.50
45207;DHT22;30950;53.086;21.576;2023-05-29T08:23:28;19.90;60.40
45207;DHT22;30950;53.086;21.576;2023-05-29T08:25:55;19.90;60.00
45207;DHT22;30950;53.086;21.576;2023-05-29T08:28:22;20.00;59.70
45207;DHT22;30950;53.086;21.576;2023-05-29T08:30:50;20.10;59.80
45207;DHT22;30950;53.086;21.576;2023-05-29T08:33:17;20.00;58.90
45207;DHT22;30950;53.086;21.576;2023-05-29T08:35:44;20.10;59.60
45207;DHT22;30950;53.086;21.576;2023-05-29T08:38:12;20.20;59.80
45207;DHT22;30950;53.086;21.576;2023-05-29T08:40:40;20.20;59.70
45207;DHT22;30950;53.086;21.576;2023-05-29T08:45:45;20.40;58.20
45207;DHT22;30950;53.086;21.576;2023-05-29T08:48:12;20.50;58.30
45207;DHT22;30950;53.086;21.576;2023-05-29T08:50:44;20.60;57.60
45207;DHT22;30950;53.086;21.576;2023-05-29T08:53:14;20.80;56.30
45207;DHT22;30950;53.086;21.576;2023-05-29T08:55:42;20.80;56.30
45207;DHT22;30950;53.086;21.576;2023-05-29T08:58:09;20.80;56.10
45207;DHT22;30950;53.086;21.576;2023-05-29T09:00:38;20.90;55.50
45207;DHT22;30950;53.086;21.576;2023-05-29T09:03:08;20.90;55.40
45207;DHT22;30950;53.086;21.576;2023-05-29T09:05:35;21.00;54.90
45207;DHT22;30950;53.086;21.576;2023-05-29T09:08:09;20.90;54.70
45207;DHT22;30950;53.086;21.576;2023-05-29T09:10:40;20.90;54.40
45207;DHT22;30950;53.086;21.576;2023-05-29T09:13:08;20.80;54.50
45207;DHT22;30950;53.086;21.576;2023-05-29T09:15:37;20.80;54.50
45207;DHT22;30950;53.086;21.576;2023-05-29T09:18:07;20.70;54.30
45207;DHT22;30950;53.086;21.576;2023-05-29T09:20:35;20.70;54.20
45207;DHT22;30950;53.086;21.576;2023-05-29T09:23:07;20.60;54.20
45207;DHT22;30950;53.086;21.576;2023-05-29T09:25:42;20.70;54.30
45207;DHT22;30950;53.086;21.576;2023-05-29T09:28:13;20.80;54.30
45207;DHT22;30950;53.086;21.576;2023-05-29T09:30:42;20.90;53.70
45207;DHT22;30950;53.086;21.576;2023-05-29T09:33:13;21.10;53.50
45207;DHT22;30950;53.086;21.576;2023-05-29T09:35:42;21.30;53.40
45207;DHT22;30950;53.086;21.576;2023-05-29T09:38:12;21.50;53.30
45207;DHT22;30950;53.086;21.576;2023-05-29T09:41:03;21.80;53.40
45207;DHT22;30950;53.086;21.576;2023-05-29T09:43:32;22.10;52.10
45207;DHT22;30950;53.086;21.576;2023-05-29T09:46:01;22.20;51.70
45207;DHT22;30950;53.086;21.576;2023-05-29T09:48:29;22.30;52.10
45207;DHT22;30950;53.086;21.576;2023-05-29T09:50:57;22.50;52.20
45207;DHT22;30950;53.086;21.576;2023-05-29T09:53:27;22.70;51.60
45207;DHT22;30950;53.086;21.576;2023-05-29T09:55:56;22.90;51.60
45207;DHT22;30950;53.086;21.576;2023-05-29T09:58:25;23.10;51.40
45207;DHT22;30950;53.086;21.576;2023-05-29T10:00:53;23.30;51.70
45207;DHT22;30950;53.086;21.576;2023-05-29T10:03:20;23.60;51.30
45207;DHT22;30950;53.086;21.576;2023-05-29T10:05:50;23.70;49.80
45207;DHT22;30950;53.086;21.576;2023-05-29T10:08:20;23.80;50.10
45207;DHT22;30950;53.086;21.576;2023-05-29T10:10:59;23.80;49.30
45207;DHT22;30950;53.086;21.576;2023-05-29T10:13:33;23.70;49.20
45207;DHT22;30950;53.086;21.576;2023-05-29T10:16:03;23.60;48.70
45207;DHT22;30950;53.086;21.576;2023-05-29T10:18:37;23.40;48.40
45207;DHT22;30950;53.086;21.576;2023-05-29T10:21:06;23.20;48.60
45207;DHT22;30950;53.086;21.576;2023-05-29T10:23:37;23.10;49.10
45207;DHT22;30950;53.086;21.576;2023-05-29T10:26:15;22.90;48.70
45207;DHT22;30950;53.086;21.576;2023-05-29T10:28:46;22.80;49.10
45207;DHT22;30950;53.086;21.576;2023-05-29T10:31:22;22.80;49.60
45207;DHT22;30950;53.086;21.576;2023-05-29T10:34:22;22.90;50.70
45207;DHT22;30950;53.086;21.576;2023-05-29T10:37:24;23.30;51.00
45207;DHT22;30950;53.086;21.576;2023-05-29T10:39:52;24.10;50.60
45207;DHT22;30950;53.086;21.576;2023-05-29T10:42:43;24.90;50.70
45207;DHT22;30950;53.086;21.576;2023-05-29T10:50:46;25.90;46.50
45207;DHT22;30950;53.086;21.576;2023-05-29T10:53:15;25.80;45.70
45207;DHT22;30950;53.086;21.576;2023-05-29T10:55:44;25.80;45.90
45207;DHT22;30950;53.086;21.576;2023-05-29T10:58:18;26.20;45.90
45207;DHT22;30950;53.086;21.576;2023-05-29T11:00:47;25.60;44.70
45207;DHT22;30950;53.086;21.576;2023-05-29T11:03:25;25.50;44.90
45207;DHT22;30950;53.086;21.576;2023-05-29T11:06:04;25.50;45.00
45207;DHT22;30950;53.086;21.576;2023-05-29T11:08:46;25.30;45.80
45207;DHT22;30950;53.086;21.576;2023-05-29T11:11:15;25.30;45.50
45207;DHT22;30950;53.086;21.576;2023-05-29T11:13:52;25.30;45.20
45207;DHT22;30950;53.086;21.576;2023-05-29T11:18:57;25.10;45.00
45207;DHT22;30950;53.086;21.576;2023-05-29T11:24:27;24.70;45.10
45207;DHT22;30950;53.086;21.576;2023-05-29T11:26:56;24.70;44.80
45207;DHT22;30950;53.086;21.576;2023-05-29T11:29:27;24.70;44.90
45207;DHT22;30950;53.086;21.576;2023-05-29T11:32:01;24.60;45.00
45207;DHT22;30950;53.086;21.576;2023-05-29T11:34:31;24.70;44.80
45207;DHT22;30950;53.086;21.576;2023-05-29T11:37:00;24.70;44.70
45207;DHT22;30950;53.086;21.576;2023-05-29T11:39:28;24.80;44.70
45207;DHT22;30950;53.086;21.576;2023-05-29T11:41:56;24.80;44.70
45207;DHT22;30950;53.086;21.576;2023-05-29T11:44:26;24.80;45.30
45207;DHT22;30950;53.086;21.576;2023-05-29T11:47:04;24.80;44.90
45207;DHT22;30950;53.086;21.576;2023-05-29T11:49:33;24.80;44.40
45207;DHT22;30950;53.086;21.576;2023-05-29T11:54:43;24.90;44.10
45207;DHT22;30950;53.086;21.576;2023-05-29T11:57:20;25.00;44.80
45207;DHT22;30950;53.086;21.576;2023-05-29T11:59:50;25.10;44.30
45207;DHT22;30950;53.086;21.576;2023-05-29T12:02:26;25.00;43.60
45207;DHT22;30950;53.086;21.576;2023-05-29T12:05:05;24.90;44.00
45207;DHT22;30950;53.086;21.576;2023-05-29T12:07:36;25.00;43.90
45207;DHT22;30950;53.086;21.576;2023-05-29T12:10:10;25.00;44.00
45207;DHT22;30950;53.086;21.576;2023-05-29T12:12:38;25.00;44.00
45207;DHT22;30950;53.086;21.576;2023-05-29T12:15:07;25.00;43.90
45207;DHT22;30950;53.086;21.576;2023-05-29T12:17:35;24.90;43.70
45207;DHT22;30950;53.086;21.576;2023-05-29T12:20:04;24.80;43.90
45207;DHT22;30950;53.086;21.576;2023-05-29T12:22:38;24.70;44.10
45207;DHT22;30950;53.086;21.576;2023-05-29T12:25:07;24.60;43.90
45207;DHT22;30950;53.086;21.576;2023-05-29T12:27:35;24.40;44.10
45207;DHT22;30950;53.086;21.576;2023-05-29T12:30:12;24.30;44.30
45207;DHT22;30950;53.086;21.576;2023-05-29T12:32:58;24.40;44.70
45207;DHT22;30950;53.086;21.576;2023-05-29T12:35:28;24.50;44.60
45207;DHT22;30950;53.086;21.576;2023-05-29T12:38:01;24.80;45.30
45207;DHT22;30950;53.086;21.576;2023-05-29T12:40:30;25.10;45.90
45207;DHT22;30950;53.086;21.576;2023-05-29T12:43:05;25.60;44.50
45207;DHT22;30950;53.086;21.576;2023-05-29T12:45:33;26.20;44.20
45207;DHT22;30950;53.086;21.576;2023-05-29T12:48:05;26.80;44.30
45207;DHT22;30950;53.086;21.576;2023-05-29T12:50:39;27.10;43.30
45207;DHT22;30950;53.086;21.576;2023-05-29T12:53:09;27.20;42.00
45207;DHT22;30950;53.086;21.576;2023-05-29T12:55:38;26.90;41.60
45207;DHT22;30950;53.086;21.576;2023-05-29T12:58:08;26.70;42.10
45207;DHT22;30950;53.086;21.576;2023-05-29T13:00:36;26.80;43.00
45207;DHT22;30950;53.086;21.576;2023-05-29T13:03:05;27.30;43.20
45207;DHT22;30950;53.086;21.576;2023-05-29T13:05:34;28.10;43.00
45207;DHT22;30950;53.086;21.576;2023-05-29T13:08:02;28.80;42.20
45207;DHT22;30950;53.086;21.576;2023-05-29T13:10:29;29.20;40.80
45207;DHT22;30950;53.086;21.576;2023-05-29T13:12:57;29.40;40.70
45207;DHT22;30950;53.086;21.576;2023-05-29T13:15:26;29.80;40.70
45207;DHT22;30950;53.086;21.576;2023-05-29T13:17:54;30.20;40.30
45207;DHT22;30950;53.086;21.576;2023-05-29T13:20:21;30.70;40.00
45207;DHT22;30950;53.086;21.576;2023-05-29T13:22:49;31.00;39.40
45207;DHT22;30950;53.086;21.576;2023-05-29T13:25:17;31.10;39.50
45207;DHT22;30950;53.086;21.576;2023-05-29T13:27:48;31.20;39.20
45207;DHT22;30950;53.086;21.576;2023-05-29T13:30:16;31.50;38.70
45207;DHT22;30950;53.086;21.576;2023-05-29T13:32:44;31.80;38.50
45207;DHT22;30950;53.086;21.576;2023-05-29T13:35:11;32.00;38.10
45207;DHT22;30950;53.086;21.576;2023-05-29T13:37:39;32.10;37.30
45207;DHT22;30950;53.086;21.576;2023-05-29T13:40:07;32.00;36.00
45207;DHT22;30950;53.086;21.576;2023-05-29T13:42:37;31.80;36.20
45207;DHT22;30950;53.086;21.576;2023-05-29T13:45:06;31.40;35.80
45207;DHT22;30950;53.086;21.576;2023-05-29T13:47:35;31.00;35.90
45207;DHT22;30950;53.086;21.576;2023-05-29T13:50:03;30.80;35.90
45207;DHT22;30950;53.086;21.576;2023-05-29T13:52:31;30.20;36.00
45207;DHT22;30950;53.086;21.576;2023-05-29T13:54:58;29.60;36.60
45207;DHT22;30950;53.086;21.576;2023-05-29T13:57:31;29.00;37.10
45207;DHT22;30950;53.086;21.576;2023-05-29T13:59:58;28.40;37.40
45207;DHT22;30950;53.086;21.576;2023-05-29T14:02:26;28.00;37.90
45207;DHT22;30950;53.086;21.576;2023-05-29T14:04:53;27.60;38.30
45207;DHT22;30950;53.086;21.576;2023-05-29T14:07:21;27.10;38.50
45207;DHT22;30950;53.086;21.576;2023-05-29T14:09:48;26.70;38.90
45207;DHT22;30950;53.086;21.576;2023-05-29T14:12:15;26.40;39.60
45207;DHT22;30950;53.086;21.576;2023-05-29T14:14:43;26.20;39.80
45207;DHT22;30950;53.086;21.576;2023-05-29T14:17:10;26.00;40.10
45207;DHT22;30950;53.086;21.576;2023-05-29T14:19:39;25.90;40.80
45207;DHT22;30950;53.086;21.576;2023-05-29T14:22:06;25.70;41.20
45207;DHT22;30950;53.086;21.576;2023-05-29T14:24:33;25.80;41.60
45207;DHT22;30950;53.086;21.576;2023-05-29T14:27:03;26.00;42.20
45207;DHT22;30950;53.086;21.576;2023-05-29T14:29:30;26.20;41.60
45207;DHT22;30950;53.086;21.576;2023-05-29T14:31:58;26.40;41.60
45207;DHT22;30950;53.086;21.576;2023-05-29T14:34:25;26.80;41.80
45207;DHT22;30950;53.086;21.576;2023-05-29T14:36:53;27.30;41.50
45207;DHT22;30950;53.086;21.576;2023-05-29T14:39:20;27.80;40.70
45207;DHT22;30950;53.086;21.576;2023-05-29T14:41:47;28.20;40.10
45207;DHT22;30950;53.086;21.576;2023-05-29T14:44:14;28.30;39.50
45207;DHT22;30950;53.086;21.576;2023-05-29T14:46:43;28.00;38.80
45207;DHT22;30950;53.086;21.576;2023-05-29T14:49:10;27.50;38.70
45207;DHT22;30950;53.086;21.576;2023-05-29T14:51:37;27.10;39.20
45207;DHT22;30950;53.086;21.576;2023-05-29T14:54:06;26.80;39.50
45207;DHT22;30950;53.086;21.576;2023-05-29T14:56:33;26.50;39.70
45207;DHT22;30950;53.086;21.576;2023-05-29T14:59:00;26.30;39.90
45207;DHT22;30950;53.086;21.576;2023-05-29T15:01:28;26.00;40.10
45207;DHT22;30950;53.086;21.576;2023-05-29T15:03:55;26.00;40.80
45207;DHT22;30950;53.086;21.576;2023-05-29T15:06:23;26.30;41.30
45207;DHT22;30950;53.086;21.576;2023-05-29T15:08:50;26.70;41.70
45207;DHT22;30950;53.086;21.576;2023-05-29T15:11:18;27.30;41.30
45207;DHT22;30950;53.086;21.576;2023-05-29T15:13:46;27.80;41.10
45207;DHT22;30950;53.086;21.576;2023-05-29T15:16:14;28.30;40.70
45207;DHT22;30950;53.086;21.576;2023-05-29T15:18:41;28.80;40.50
45207;DHT22;30950;53.086;21.576;2023-05-29T15:21:08;29.20;39.50
45207;DHT22;30950;53.086;21.576;2023-05-29T15:23:35;29.30;39.00
45207;DHT22;30950;53.086;21.576;2023-05-29T15:26:06;29.30;38.90
45207;DHT22;30950;53.086;21.576;2023-05-29T15:28:33;29.00;39.50
45207;DHT22;30950;53.086;21.576;2023-05-29T15:31:01;28.70;40.10
45207;DHT22;30950;53.086;21.576;2023-05-29T15:33:28;28.60;40.70
45207;DHT22;30950;53.086;21.576;2023-05-29T15:35:57;28.60;40.90
45207;DHT22;30950;53.086;21.576;2023-05-29T15:38:24;28.50;40.50
45207;DHT22;30950;53.086;21.576;2023-05-29T15:40:53;28.30;40.50
45207;DHT22;30950;53.086;21.576;2023-05-29T15:43:20;27.90;41.30
45207;DHT22;30950;53.086;21.576;2023-05-29T15:45:48;27.60;40.60
45207;DHT22;30950;53.086;21.576;2023-05-29T15:48:16;27.50;40.90
45207;DHT22;30950;53.086;21.576;2023-05-29T15:50:43;27.40;41.30
45207;DHT22;30950;53.086;21.576;2023-05-29T15:53:10;27.40;41.50
45207;DHT22;30950;53.086;21.576;2023-05-29T15:55:38;27.50;42.00
45207;DHT22;30950;53.086;21.576;2023-05-29T15:58:05;27.70;42.80
45207;DHT22;30950;53.086;21.576;2023-05-29T16:00:35;27.70;41.60